createdAt,value
2023-05-05T00:12:09.033Z,8.73
2023-05-05T00:32:09.031Z,8.35
2023-05-05T00:52:09.097Z,8.30
2023-05-05T01:12:13.176Z,8.06
2023-05-05T01:32:09.026Z,7.91
2023-05-05T01:52:09.022Z,8.06
2023-05-05T02:12:09.026Z,7.78
2023-05-05T02:32:08.924Z,7.57
2023-05-05T02:52:08.913Z,7.63
2023-05-05T03:12:08.926Z,7.64
2023-05-05T03:32:08.901Z,7.65
2023-05-05T03:52:08.899Z,7.68
2023-05-05T04:12:08.908Z,7.71
2023-05-05T04:32:08.907Z,8.06
2023-05-05T04:52:08.904Z,8.56
2023-05-05T05:12:08.903Z,9.29
2023-05-05T05:32:08.906Z,10.07
2023-05-05T05:52:08.899Z,10.71
2023-05-05T06:12:08.920Z,11.46
2023-05-05T06:32:08.790Z,12.41
2023-05-05T06:52:08.829Z,13.14
2023-05-05T07:12:08.795Z,14.28
2023-05-05T07:32:08.893Z,15.88
2023-05-05T07:52:08.818Z,16.47
2023-05-05T08:12:08.703Z,17.12
2023-05-05T08:32:08.706Z,19.63
2023-05-05T08:52:08.702Z,20.29
2023-05-05T09:12:08.669Z,20.39
2023-05-05T09:32:08.616Z,20.52
2023-05-05T09:52:08.655Z,20.51
2023-05-05T10:12:08.652Z,21.05
2023-05-05T10:32:08.542Z,21.36
2023-05-05T10:52:08.546Z,21.03
2023-05-05T11:12:08.524Z,21.29
2023-05-05T11:32:08.480Z,21.73
2023-05-05T11:52:08.467Z,21.40
2023-05-05T12:12:08.367Z,21.20
2023-05-05T12:32:08.428Z,21.96
2023-05-05T12:52:08.388Z,23.10
2023-05-05T13:12:08.302Z,22.69
2023-05-05T13:32:08.336Z,22.41
2023-05-05T13:52:08.244Z,22.11
2023-05-05T14:12:08.235Z,21.81
2023-05-05T14:32:08.255Z,21.99
2023-05-05T14:52:08.172Z,21.85
2023-05-05T15:12:08.182Z,21.27
2023-05-05T15:32:08.089Z,21.34
2023-05-05T15:52:08.170Z,21.52
2023-05-05T16:12:08.113Z,21.99
2023-05-05T16:32:08.026Z,21.76
2023-05-05T16:52:08.090Z,21.08
2023-05-05T17:12:07.960Z,19.88
2023-05-05T17:32:08.047Z,19.28
2023-05-05T17:52:07.975Z,18.71
2023-05-05T18:12:07.889Z,18.30
2023-05-05T18:32:07.898Z,17.80
2023-05-05T18:52:07.914Z,17.44
2023-05-05T19:12:07.892Z,12.77
2023-05-05T19:32:07.837Z,12.12
2023-05-05T19:52:08.008Z,12.06
2023-05-05T20:12:07.981Z,11.94
2023-05-05T20:32:07.805Z,11.91
2023-05-05T20:52:07.950Z,11.93
2023-05-05T21:12:07.886Z,12.05
2023-05-05T21:32:07.851Z,11.94
2023-05-05T21:52:07.750Z,12.06
2023-05-05T22:12:07.644Z,12.10
2023-05-05T22:32:07.833Z,12.13
2023-05-05T22:52:07.782Z,12.05
2023-05-05T23:12:07.803Z,11.84
2023-05-05T23:32:07.815Z,11.89
2023-05-05T23:52:07.650Z,11.79
